Private Wetterstation Sandau
Wetterdaten: Sonntag, 22.07.2012
Datum Zeit Temp. A. Feuchte A. Luftdruck Regen Wind Richtung Richtung Taupunkt Windchill
22.07.2012 00:01 12,2 C 73 % 1023,4 hPa 0,0 l/m 4,0 km/h (1 Bft) W-NW 292 7,5 C 12,2 C
22.07.2012 00:06 12,2 C 73 % 1023,5 hPa 0,0 l/m 2,5 km/h (1 Bft) W-NW 292 7,5 C 12,2 C
22.07.2012 00:11 12,2 C 73 % 1023,6 hPa 0,0 l/m 3,6 km/h (1 Bft) W-NW 292 7,5 C 12,2 C
22.07.2012 00:16 12,2 C 73 % 1023,6 hPa 0,0 l/m 5,0 km/h (1 Bft) NW 315 7,5 C 12,2 C
22.07.2012 00:21 12,2 C 74 % 1023,6 hPa 0,0 l/m 4,0 km/h (1 Bft) W 270 7,7 C 12,2 C
22.07.2012 00:26 12,3 C 73 % 1023,7 hPa 0,0 l/m 1,8 km/h (1 Bft) W-NW 292 7,6 C 12,3 C
22.07.2012 00:31 12,3 C 73 % 1023,7 hPa 0,0 l/m 2,9 km/h (1 Bft) W-SW 247 7,6 C 12,3 C
22.07.2012 00:36 12,3 C 73 % 1023,8 hPa 0,0 l/m 2,5 km/h (1 Bft) W 270 7,6 C 12,3 C
22.07.2012 00:41 12,4 C 74 % 1023,8 hPa 0,0 l/m 2,9 km/h (1 Bft) W-NW 292 7,9 C 12,4 C
22.07.2012 00:46 12,4 C 74 % 1023,9 hPa 0,0 l/m 2,5 km/h (1 Bft) W-NW 292 7,9 C 12,4 C
22.07.2012 00:51 12,4 C 74 % 1023,9 hPa 0,0 l/m 5,0 km/h (1 Bft) W 270 7,9 C 12,4 C
22.07.2012 00:56 12,4 C 74 % 1023,9 hPa 0,0 l/m 7,9 km/h (2 Bft) W-NW 292 7,9 C 12,4 C
22.07.2012 01:01 12,4 C 74 % 1023,9 hPa 0,0 l/m 0,0 km/h (0 Bft) W-NW 292 7,9 C 12,4 C
22.07.2012 01:06 12,3 C 74 % 1023,9 hPa 0,0 l/m 5,0 km/h (1 Bft) N-NW 337 7,8 C 12,3 C
22.07.2012 01:11 12,3 C 74 % 1024,0 hPa 0,0 l/m 4,7 km/h (1 Bft) W 270 7,8 C 12,3 C
22.07.2012 01:16 12,2 C 75 % 1024,0 hPa 0,0 l/m 2,5 km/h (1 Bft) W-NW 292 7,9 C 12,2 C
22.07.2012 01:21 12,2 C 75 % 1023,9 hPa 0,0 l/m 2,2 km/h (1 Bft) W-SW 247 7,9 C 12,2 C
22.07.2012 01:26 12,2 C 75 % 1024,0 hPa 0,0 l/m 1,1 km/h (1 Bft) W-NW 292 7,9 C 12,2 C
22.07.2012 01:31 12,1 C 75 % 1023,9 hPa 0,0 l/m 0,0 km/h (0 Bft) W 270 7,8 C 12,1 C
22.07.2012 01:36 12,1 C 75 % 1024,0 hPa 0,0 l/m 0,0 km/h (0 Bft) W 270 7,8 C 12,1 C
22.07.2012 01:41 12,1 C 76 % 1023,9 hPa 0,0 l/m 1,4 km/h (1 Bft) W-NW 292 8,0 C 12,1 C
22.07.2012 01:46 12,1 C 76 % 1024,0 hPa 0,0 l/m 3,6 km/h (1 Bft) W 270 8,0 C 12,1 C
22.07.2012 01:51 11,9 C 76 % 1024,1 hPa 0,0 l/m 7,2 km/h (2 Bft) W-NW 292 7,8 C 11,9 C
22.07.2012 01:56 11,9 C 76 % 1024,1 hPa 0,0 l/m 5,0 km/h (1 Bft) W-NW 292 7,8 C 11,9 C
22.07.2012 02:01 11,9 C 76 % 1024,2 hPa 0,0 l/m 0,0 km/h (0 Bft) N-NW 337 7,8 C 11,9 C
22.07.2012 02:06 11,9 C 77 % 1024,3 hPa 0,0 l/m 4,7 km/h (1 Bft) W-NW 292 8,0 C 11,9 C
22.07.2012 02:11 11,9 C 77 % 1024,2 hPa 0,0 l/m 4,0 km/h (1 Bft) W-NW 292 8,0 C 11,9 C
22.07.2012 02:16 11,9 C 77 % 1024,4 hPa 0,0 l/m 3,6 km/h (1 Bft) W-SW 247 8,0 C 11,9 C
22.07.2012 02:21 11,9 C 77 % 1024,4 hPa 0,0 l/m 2,2 km/h (1 Bft) W 270 8,0 C 11,9 C
22.07.2012 02:26 11,9 C 78 % 1024,4 hPa 0,0 l/m 8,6 km/h (2 Bft) NW 315 8,2 C 11,9 C
22.07.2012 02:31 11,9 C 78 % 1024,4 hPa 0,0 l/m 4,0 km/h (1 Bft) NW 315 8,2 C 11,9 C
22.07.2012 02:36 11,9 C 78 % 1024,5 hPa 0,0 l/m 6,1 km/h (2 Bft) W 270 8,2 C 11,9 C
22.07.2012 02:41 11,9 C 78 % 1024,5 hPa 0,0 l/m 6,1 km/h (2 Bft) NW 315 8,2 C 11,9 C
22.07.2012 02:46 11,9 C 78 % 1024,6 hPa 0,0 l/m 6,1 km/h (2 Bft) N-NW 337 8,2 C 11,9 C
22.07.2012 02:51 11,9 C 78 % 1024,7 hPa 0,0 l/m 5,4 km/h (1 Bft) NW 315 8,2 C 11,9 C
22.07.2012 02:56 11,8 C 79 % 1024,7 hPa 0,0 l/m 0,0 km/h (0 Bft) NW 315 8,3 C 11,8 C
22.07.2012 03:01 11,8 C 79 % 1024,7 hPa 0,0 l/m 4,7 km/h (1 Bft) W-NW 292 8,3 C 11,8 C
22.07.2012 03:06 11,7 C 80 % 1024,7 hPa 0,0 l/m 4,0 km/h (1 Bft) N-NW 337 8,4 C 11,7 C
22.07.2012 03:11 11,6 C 80 % 1024,6 hPa 0,0 l/m 0,0 km/h (0 Bft) NW 315 8,3 C 11,6 C
22.07.2012 03:16 11,6 C 80 % 1024,8 hPa 0,0 l/m 2,5 km/h (1 Bft) NW 315 8,3 C 11,6 C
22.07.2012 03:21 11,6 C 80 % 1024,7 hPa 0,0 l/m 3,2 km/h (1 Bft) NW 315 8,3 C 11,6 C
22.07.2012 03:26 11,6 C 80 % 1024,6 hPa 0,0 l/m 3,6 km/h (1 Bft) W 270 8,3 C 11,6 C
22.07.2012 03:31 11,6 C 81 % 1024,6 hPa 0,0 l/m 1,4 km/h (1 Bft) NW 315 8,5 C 11,6 C
22.07.2012 03:36 11,6 C 81 % 1024,7 hPa 0,0 l/m 5,4 km/h (1 Bft) NW 315 8,5 C 11,6 C
22.07.2012 03:41 11,5 C 81 % 1024,7 hPa 0,0 l/m 6,5 km/h (2 Bft) NW 315 8,4 C 11,5 C
22.07.2012 03:46 11,5 C 81 % 1024,6 hPa 0,0 l/m 5,0 km/h (1 Bft) W-NW 292 8,4 C 11,5 C
22.07.2012 03:51 11,4 C 81 % 1024,7 hPa 0,0 l/m 4,7 km/h (1 Bft) N-NW 337 8,3 C 11,4 C
22.07.2012 03:56 11,3 C 82 % 1024,7 hPa 0,0 l/m 4,3 km/h (1 Bft) NW 315 8,3 C 11,3 C
22.07.2012 04:01 11,3 C 82 % 1024,8 hPa 0,0 l/m 6,8 km/h (2 Bft) W-NW 292 8,3 C 11,3 C
22.07.2012 04:06 11,2 C 82 % 1024,8 hPa 0,0 l/m 5,8 km/h (2 Bft) W-NW 292 8,2 C 11,2 C
22.07.2012 04:11 11,1 C 83 % 1024,9 hPa 0,0 l/m 5,0 km/h (1 Bft) NW 315 8,3 C 11,1 C
22.07.2012 04:16 11,1 C 83 % 1025,0 hPa 0,0 l/m 1,8 km/h (1 Bft) W-NW 292 8,3 C 11,1 C
22.07.2012 04:21 11,1 C 83 % 1025,0 hPa 0,0 l/m 4,3 km/h (1 Bft) NW 315 8,3 C 11,1 C
22.07.2012 04:26 11,1 C 83 % 1025,0 hPa 0,0 l/m 3,2 km/h (1 Bft) NW 315 8,3 C 11,1 C
22.07.2012 04:31 11,1 C 83 % 1025,0 hPa 0,0 l/m 4,0 km/h (1 Bft) NW 315 8,3 C 11,1 C
22.07.2012 04:36 11,1 C 84 % 1025,1 hPa 0,0 l/m 2,9 km/h (1 Bft) NW 315 8,5 C 11,1 C
22.07.2012 04:41 11,1 C 84 % 1025,1 hPa 0,0 l/m 2,5 km/h (1 Bft) NW 315 8,5 C 11,1 C
22.07.2012 04:46 11,1 C 84 % 1025,1 hPa 0,0 l/m 3,2 km/h (1 Bft) W-NW 292 8,5 C 11,1 C
22.07.2012 04:51 11,1 C 84 % 1025,2 hPa 0,0 l/m 5,8 km/h (2 Bft) N-NW 337 8,5 C 11,1 C
22.07.2012 04:56 11,0 C 85 % 1025,2 hPa 0,0 l/m 0,0 km/h (0 Bft) NW 315 8,6 C 11,0 C
22.07.2012 05:01 11,0 C 85 % 1025,3 hPa 0,0 l/m 5,0 km/h (1 Bft) NW 315 8,6 C 11,0 C
22.07.2012 05:06 10,9 C 85 % 1025,2 hPa 0,0 l/m 6,1 km/h (2 Bft) N-NW 337 8,5 C 10,9 C
22.07.2012 05:11 10,9 C 85 % 1025,2 hPa 0,0 l/m 4,0 km/h (1 Bft) N-NW 337 8,5 C 10,9 C
22.07.2012 05:16 10,9 C 85 % 1025,3 hPa 0,0 l/m 4,7 km/h (1 Bft) NW 315 8,5 C 10,9 C
22.07.2012 05:21 10,9 C 86 % 1025,4 hPa 0,0 l/m 1,1 km/h (1 Bft) N-NW 337 8,7 C 10,9 C
22.07.2012 05:26 10,8 C 86 % 1025,4 hPa 0,0 l/m 3,6 km/h (1 Bft) NW 315 8,6 C 10,8 C
22.07.2012 05:31 10,8 C 86 % 1025,4 hPa 0,0 l/m 2,5 km/h (1 Bft) N-NW 337 8,6 C 10,8 C
22.07.2012 05:36 10,8 C 86 % 1025,5 hPa 0,0 l/m 2,5 km/h (1 Bft) W-NW 292 8,6 C 10,8 C
22.07.2012 05:41 10,8 C 86 % 1025,6 hPa 0,0 l/m 4,7 km/h (1 Bft) NW 315 8,6 C 10,8 C
22.07.2012 05:46 10,8 C 86 % 1025,6 hPa 0,0 l/m 4,0 km/h (1 Bft) W-NW 292 8,6 C 10,8 C
22.07.2012 05:51 10,8 C 86 % 1025,7 hPa 0,0 l/m 1,4 km/h (1 Bft) NW 315 8,6 C 10,8 C
22.07.2012 05:56 10,9 C 86 % 1025,6 hPa 0,0 l/m 1,8 km/h (1 Bft) NW 315 8,7 C 10,9 C
22.07.2012 06:01 11,8 C 85 % 1025,7 hPa 0,0 l/m 3,2 km/h (1 Bft) W-NW 292 9,4 C 11,8 C
22.07.2012 06:06 13,4 C 83 % 1025,7 hPa 0,0 l/m 4,0 km/h (1 Bft) NW 315 10,6 C 13,4 C
22.07.2012 06:11 14,4 C 79 % 1025,8 hPa 0,0 l/m 6,8 km/h (2 Bft) NW 315 10,8 C 14,4 C
22.07.2012 06:16 14,5 C 78 % 1025,8 hPa 0,0 l/m 3,2 km/h (1 Bft) W-NW 292 10,7 C 14,5 C
22.07.2012 06:21 14,9 C 75 % 1025,8 hPa 0,0 l/m 6,5 km/h (2 Bft) N-NW 337 10,5 C 14,9 C
22.07.2012 06:26 15,6 C 73 % 1025,8 hPa 0,0 l/m 1,4 km/h (1 Bft) NW 315 10,8 C 15,6 C
22.07.2012 06:31 16,3 C 72 % 1026,0 hPa 0,0 l/m 5,8 km/h (2 Bft) N-NW 337 11,2 C 16,3 C
22.07.2012 06:36 17,1 C 68 % 1026,0 hPa 0,0 l/m 4,0 km/h (1 Bft) N 360 11,1 C 17,1 C
22.07.2012 06:41 16,4 C 69 % 1026,1 hPa 0,0 l/m 4,3 km/h (1 Bft) NW 315 10,7 C 16,4 C
22.07.2012 06:46 17,2 C 67 % 1026,2 hPa 0,0 l/m 9,7 km/h (2 Bft) NW 315 11,0 C 17,2 C
22.07.2012 06:51 17,3 C 66 % 1026,2 hPa 0,0 l/m 7,2 km/h (2 Bft) N-NW 337 10,9 C 17,3 C
22.07.2012 06:56 15,5 C 68 % 1026,2 hPa 0,0 l/m 5,0 km/h (1 Bft) W 270 9,6 C 15,5 C
22.07.2012 07:01 16,3 C 70 % 1026,2 hPa 0,0 l/m 1,4 km/h (1 Bft) NW 315 10,8 C 16,3 C
22.07.2012 07:06 17,9 C 66 % 1026,3 hPa 0,0 l/m 0,0 km/h (0 Bft) W 270 11,5 C 17,9 C
22.07.2012 07:11 18,1 C 63 % 1026,3 hPa 0,0 l/m 4,3 km/h (1 Bft) N-NO 22 10,9 C 18,1 C
22.07.2012 07:16 18,3 C 62 % 1026,3 hPa 0,0 l/m 5,8 km/h (2 Bft) N 360 10,9 C 18,3 C
22.07.2012 07:21 18,1 C 63 % 1026,5 hPa 0,0 l/m 4,0 km/h (1 Bft) N 360 10,9 C 18,1 C
22.07.2012 07:26 18,2 C 62 % 1026,5 hPa 0,0 l/m 2,5 km/h (1 Bft) N-NO 22 10,8 C 18,2 C
22.07.2012 07:31 17,6 C 64 % 1026,5 hPa 0,0 l/m 5,4 km/h (1 Bft) W-NW 292 10,7 C 17,6 C
22.07.2012 07:36 17,6 C 65 % 1026,7 hPa 0,0 l/m 5,0 km/h (1 Bft) N 360 10,9 C 17,6 C
22.07.2012 07:41 16,9 C 66 % 1026,8 hPa 0,0 l/m 4,0 km/h (1 Bft) NO 45 10,5 C 16,9 C
22.07.2012 07:46 16,6 C 68 % 1026,8 hPa 0,0 l/m 5,4 km/h (1 Bft) NW 315 10,7 C 16,6 C
22.07.2012 07:51 16,4 C 68 % 1026,8 hPa 0,0 l/m 3,2 km/h (1 Bft) N-NW 337 10,5 C 16,4 C
22.07.2012 07:56 15,6 C 70 % 1026,9 hPa 0,0 l/m 12,6 km/h (3 Bft) N-NO 22 10,1 C 15,6 C
22.07.2012 08:01 15,5 C 72 % 1026,9 hPa 0,0 l/m 2,2 km/h (1 Bft) NW 315 10,5 C 15,5 C
22.07.2012 08:06 15,6 C 72 % 1027,0 hPa 0,0 l/m 3,6 km/h (1 Bft) N-NO 22 10,6 C 15,6 C
22.07.2012 08:11 15,8 C 71 % 1027,2 hPa 0,0 l/m 2,5 km/h (1 Bft) N-NO 22 10,6 C 15,8 C
22.07.2012 08:16 15,4 C 72 % 1027,2 hPa 0,0 l/m 9,4 km/h (2 Bft) N-NO 22 10,4 C 15,4 C
22.07.2012 08:21 15,9 C 72 % 1027,2 hPa 0,0 l/m 2,9 km/h (1 Bft) N 360 10,9 C 15,9 C
22.07.2012 08:26 16,2 C 71 % 1027,3 hPa 0,0 l/m 4,0 km/h (1 Bft) NW 315 10,9 C 16,2 C
22.07.2012 08:31 16,1 C 70 % 1027,4 hPa 0,0 l/m 6,5 km/h (2 Bft) N-NO 22 10,6 C 16,1 C
22.07.2012 08:36 15,9 C 70 % 1027,3 hPa 0,0 l/m 2,5 km/h (1 Bft) NO 45 10,4 C 15,9 C
22.07.2012 08:41 16,2 C 71 % 1027,3 hPa 0,0 l/m 2,5 km/h (1 Bft) W 270 10,9 C 16,2 C
22.07.2012 08:46 16,4 C 68 % 1027,4 hPa 0,0 l/m 8,3 km/h (2 Bft) N-NO 22 10,5 C 16,4 C
22.07.2012 08:51 16,3 C 69 % 1027,5 hPa 0,0 l/m 7,9 km/h (2 Bft) N-NW 337 10,6 C 16,3 C
22.07.2012 08:56 16,1 C 69 % 1027,4 hPa 0,0 l/m 0,0 km/h (0 Bft) N-NO 22 10,4 C 16,1 C
22.07.2012 09:01 16,1 C 70 % 1027,4 hPa 0,0 l/m 4,7 km/h (1 Bft) N-NW 337 10,6 C 16,1 C
22.07.2012 09:06 16,3 C 69 % 1027,5 hPa 0,0 l/m 4,7 km/h (1 Bft) N 360 10,6 C 16,3 C
22.07.2012 09:11 16,4 C 68 % 1027,3 hPa 0,0 l/m 3,2 km/h (1 Bft) N-NO 22 10,5 C 16,4 C
22.07.2012 09:16 16,5 C 69 % 1027,4 hPa 0,0 l/m 7,2 km/h (2 Bft) N 360 10,8 C 16,5 C
22.07.2012 09:21 16,8 C 66 % 1027,3 hPa 0,0 l/m 5,8 km/h (2 Bft) N 360 10,4 C 16,8 C
22.07.2012 09:26 16,9 C 65 % 1027,4 hPa 0,0 l/m 5,4 km/h (1 Bft) N 360 10,3 C 16,9 C
22.07.2012 09:31 16,6 C 66 % 1027,5 hPa 0,0 l/m 8,3 km/h (2 Bft) N 360 10,2 C 16,6 C
22.07.2012 09:36 17,1 C 65 % 1027,5 hPa 0,0 l/m 7,6 km/h (2 Bft) N-NW 337 10,5 C 17,1 C
22.07.2012 09:41 16,8 C 65 % 1027,5 hPa 0,0 l/m 7,6 km/h (2 Bft) N-NO 22 10,2 C 16,8 C
22.07.2012 09:46 17,2 C 64 % 1027,5 hPa 0,0 l/m 6,5 km/h (2 Bft) NO 45 10,3 C 17,2 C
22.07.2012 09:51 17,4 C 63 % 1027,6 hPa 0,0 l/m 2,2 km/h (1 Bft) N-NO 22 10,3 C 17,4 C
22.07.2012 09:56 18,0 C 64 % 1027,6 hPa 0,0 l/m 4,7 km/h (1 Bft) N 360 11,1 C 18,0 C
22.07.2012 10:01 18,3 C 62 % 1027,6 hPa 0,0 l/m 4,0 km/h (1 Bft) NO 45 10,9 C 18,3 C
22.07.2012 10:06 18,6 C 59 % 1027,6 hPa 0,0 l/m 4,3 km/h (1 Bft) N-NO 22 10,4 C 18,6 C
22.07.2012 10:11 18,5 C 57 % 1027,6 hPa 0,0 l/m 11,5 km/h (2 Bft) N 360 9,8 C 18,5 C
22.07.2012 10:16 18,8 C 59 % 1027,7 hPa 0,0 l/m 5,0 km/h (1 Bft) W 270 10,6 C 18,8 C
22.07.2012 10:21 18,9 C 58 % 1027,6 hPa 0,0 l/m 8,3 km/h (2 Bft) N 360 10,5 C 18,9 C
22.07.2012 10:26 19,1 C 58 % 1027,8 hPa 0,0 l/m 8,6 km/h (2 Bft) NW 315 10,6 C 19,1 C
22.07.2012 10:31 18,5 C 57 % 1027,8 hPa 0,0 l/m 9,4 km/h (2 Bft) NW 315 9,8 C 18,5 C
22.07.2012 10:36 17,6 C 57 % 1027,9 hPa 0,0 l/m 5,8 km/h (2 Bft) NO 45 9,0 C 17,6 C
22.07.2012 10:41 16,7 C 59 % 1027,8 hPa 0,0 l/m 7,2 km/h (2 Bft) N-NO 22 8,6 C 16,7 C
22.07.2012 10:46 16,9 C 60 % 1027,9 hPa 0,0 l/m 10,1 km/h (2 Bft) N-NO 22 9,1 C 16,9 C
22.07.2012 10:51 18,1 C 57 % 1027,9 hPa 0,0 l/m 8,3 km/h (2 Bft) N 360 9,4 C 18,1 C
22.07.2012 10:56 18,7 C 56 % 1027,9 hPa 0,0 l/m 5,0 km/h (1 Bft) N-NO 22 9,7 C 18,7 C
22.07.2012 11:01 18,9 C 53 % 1028,0 hPa 0,0 l/m 9,7 km/h (2 Bft) N-NO 22 9,1 C 18,9 C
22.07.2012 11:06 18,1 C 56 % 1028,1 hPa 0,0 l/m 8,3 km/h (2 Bft) W 270 9,2 C 18,1 C
22.07.2012 11:11 18,8 C 57 % 1028,0 hPa 0,0 l/m 7,2 km/h (2 Bft) N-NO 22 10,1 C 18,8 C
22.07.2012 11:16 17,8 C 57 % 1028,1 hPa 0,0 l/m 12,6 km/h (3 Bft) N 360 9,2 C 17,8 C
22.07.2012 11:21 17,1 C 60 % 1028,1 hPa 0,0 l/m 6,1 km/h (2 Bft) N-NW 337 9,3 C 17,1 C
22.07.2012 11:26 17,9 C 58 % 1028,1 hPa 0,0 l/m 4,7 km/h (1 Bft) N 360 9,5 C 17,9 C
22.07.2012 11:31 18,7 C 53 % 1028,0 hPa 0,0 l/m 5,8 km/h (2 Bft) N-NO 22 8,9 C 18,7 C
22.07.2012 11:36 18,9 C 53 % 1028,0 hPa 0,0 l/m 14,0 km/h (3 Bft) N-NW 337 9,1 C 18,9 C
22.07.2012 11:41 19,6 C 53 % 1028,0 hPa 0,0 l/m 6,1 km/h (2 Bft) N-NW 337 9,8 C 19,6 C
22.07.2012 11:46 19,9 C 51 % 1028,0 hPa 0,0 l/m 7,6 km/h (2 Bft) N-NW 337 9,5 C 19,9 C
22.07.2012 11:51 19,9 C 49 % 1028,1 hPa 0,0 l/m 15,8 km/h (3 Bft) NO 45 8,9 C 19,9 C
22.07.2012 11:56 19,6 C 49 % 1028,3 hPa 0,0 l/m 5,0 km/h (1 Bft) N 360 8,6 C 19,6 C
22.07.2012 12:01 19,6 C 49 % 1028,3 hPa 0,0 l/m 15,8 km/h (3 Bft) N-NO 22 8,6 C 19,6 C
22.07.2012 12:06 20,2 C 50 % 1028,3 hPa 0,0 l/m 9,0 km/h (2 Bft) NO 45 9,4 C 20,2 C
22.07.2012 12:11 20,4 C 50 % 1028,2 hPa 0,0 l/m 2,2 km/h (1 Bft) NW 315 9,6 C 20,4 C
22.07.2012 12:16 20,5 C 49 % 1028,2 hPa 0,0 l/m 12,6 km/h (3 Bft) NO 45 9,4 C 20,5 C
22.07.2012 12:21 18,9 C 52 % 1028,2 hPa 0,0 l/m 4,3 km/h (1 Bft) N-NW 337 8,8 C 18,9 C
22.07.2012 12:26 18,2 C 52 % 1028,2 hPa 0,0 l/m 3,6 km/h (1 Bft) N-NO 22 8,2 C 18,2 C
22.07.2012 12:31 19,2 C 51 % 1028,1 hPa 0,0 l/m 4,0 km/h (1 Bft) N 360 8,8 C 19,2 C
22.07.2012 12:36 19,9 C 50 % 1028,1 hPa 0,0 l/m 13,0 km/h (3 Bft) N 360 9,2 C 19,9 C
22.07.2012 12:41 20,6 C 49 % 1028,0 hPa 0,0 l/m 13,0 km/h (3 Bft) N 360 9,5 C 20,6 C
22.07.2012 12:46 21,2 C 46 % 1028,0 hPa 0,0 l/m 2,9 km/h (1 Bft) NW 315 9,1 C 21,2 C
22.07.2012 12:51 21,2 C 42 % 1028,0 hPa 0,0 l/m 3,2 km/h (1 Bft) N-NO 22 7,8 C 21,2 C
22.07.2012 12:56 20,9 C 42 % 1027,9 hPa 0,0 l/m 4,3 km/h (1 Bft) N 360 7,5 C 20,9 C
22.07.2012 13:01 20,7 C 44 % 1027,9 hPa 0,0 l/m 5,0 km/h (1 Bft) W-NW 292 8,0 C 20,7 C
22.07.2012 13:06 20,6 C 47 % 1027,9 hPa 0,0 l/m 2,2 km/h (1 Bft) N-NW 337 8,9 C 20,6 C
22.07.2012 13:11 21,4 C 47 % 1028,0 hPa 0,0 l/m 2,5 km/h (1 Bft) NO 45 9,6 C 21,4 C
22.07.2012 13:16 21,1 C 45 % 1028,0 hPa 0,0 l/m 14,4 km/h (3 Bft) N-NW 337 8,7 C 21,1 C
22.07.2012 13:21 20,8 C 46 % 1027,9 hPa 0,0 l/m 13,7 km/h (3 Bft) N-NO 22 8,8 C 20,8 C
22.07.2012 13:26 21,1 C 44 % 1027,8 hPa 0,0 l/m 1,8 km/h (1 Bft) N 360 8,4 C 21,1 C
22.07.2012 13:31 21,9 C 44 % 1027,8 hPa 0,0 l/m 7,6 km/h (2 Bft) W-NW 292 9,1 C 21,9 C
22.07.2012 13:36 21,8 C 42 % 1028,0 hPa 0,0 l/m 4,0 km/h (1 Bft) N 360 8,3 C 21,8 C
22.07.2012 13:41 21,9 C 41 % 1027,9 hPa 0,0 l/m 3,6 km/h (1 Bft) W-NW 292 8,0 C 21,9 C
22.07.2012 13:46 22,3 C 41 % 1027,9 hPa 0,0 l/m 7,6 km/h (2 Bft) N-NO 22 8,4 C 22,3 C
22.07.2012 13:51 21,8 C 40 % 1027,9 hPa 0,0 l/m 2,9 km/h (1 Bft) N-NO 22 7,6 C 21,8 C
22.07.2012 13:56 22,1 C 42 % 1028,0 hPa 0,0 l/m 5,0 km/h (1 Bft) N-NO 22 8,6 C 22,1 C
22.07.2012 14:01 22,4 C 42 % 1028,2 hPa 0,0 l/m 10,4 km/h (2 Bft) N 360 8,9 C 22,4 C
22.07.2012 14:06 22,8 C 42 % 1028,1 hPa 0,0 l/m 5,8 km/h (2 Bft) W-SW 247 9,2 C 22,8 C
22.07.2012 14:11 22,2 C 41 % 1028,2 hPa 0,0 l/m 2,9 km/h (1 Bft) NW 315 8,3 C 22,2 C
22.07.2012 14:16 21,0 C 42 % 1028,1 hPa 0,0 l/m 2,2 km/h (1 Bft) N-NO 22 7,6 C 21,0 C
22.07.2012 14:21 20,3 C 45 % 1028,2 hPa 0,0 l/m 3,6 km/h (1 Bft) N-NO 22 8,0 C 20,3 C
22.07.2012 14:26 20,2 C 45 % 1028,3 hPa 0,0 l/m 1,1 km/h (1 Bft) NW 315 7,9 C 20,2 C
22.07.2012 14:31 20,8 C 45 % 1028,3 hPa 0,0 l/m 10,4 km/h (2 Bft) W-NW 292 8,4 C 20,8 C
22.07.2012 14:36 21,9 C 43 % 1028,4 hPa 0,0 l/m 2,5 km/h (1 Bft) O-NO 67 8,7 C 21,9 C
22.07.2012 14:41 22,6 C 41 % 1028,3 hPa 0,0 l/m 12,2 km/h (2 Bft) NW 315 8,7 C 22,6 C
22.07.2012 14:46 22,5 C 41 % 1028,2 hPa 0,0 l/m 2,5 km/h (1 Bft) N 360 8,6 C 22,5 C
22.07.2012 14:51 22,1 C 40 % 1028,2 hPa 0,0 l/m 4,7 km/h (1 Bft) N-NO 22 7,9 C 22,1 C
22.07.2012 14:56 22,5 C 41 % 1028,2 hPa 0,0 l/m 14,8 km/h (3 Bft) NW 315 8,6 C 22,5 C
22.07.2012 15:01 20,9 C 42 % 1028,2 hPa 0,0 l/m 3,2 km/h (1 Bft) N-NO 22 7,5 C 20,9 C
22.07.2012 15:06 20,2 C 45 % 1028,3 hPa 0,0 l/m 5,4 km/h (1 Bft) N 360 7,9 C 20,2 C
22.07.2012 15:11 19,9 C 46 % 1028,3 hPa 0,0 l/m 0,0 km/h (0 Bft) N 360 7,9 C 19,9 C
22.07.2012 15:16 20,6 C 46 % 1028,3 hPa 0,0 l/m 4,0 km/h (1 Bft) W-NW 292 8,6 C 20,6 C
22.07.2012 15:21 22,2 C 42 % 1028,1 hPa 0,0 l/m 4,7 km/h (1 Bft) NW 315 8,7 C 22,2 C
22.07.2012 15:26 23,1 C 40 % 1028,2 hPa 0,0 l/m 10,8 km/h (2 Bft) W 270 8,8 C 23,1 C
22.07.2012 15:31 23,4 C 39 % 1028,3 hPa 0,0 l/m 13,3 km/h (3 Bft) NW 315 8,6 C 23,4 C
22.07.2012 15:36 22,2 C 40 % 1028,2 hPa 0,0 l/m 6,5 km/h (2 Bft) W-NW 292 8,0 C 22,2 C
22.07.2012 15:41 21,6 C 41 % 1028,2 hPa 0,0 l/m 3,2 km/h (1 Bft) W-NW 292 7,8 C 21,6 C
22.07.2012 15:46 20,6 C 43 % 1028,1 hPa 0,0 l/m 7,6 km/h (2 Bft) N-NO 22 7,6 C 20,6 C
22.07.2012 15:51 20,1 C 44 % 1028,2 hPa 0,0 l/m 3,6 km/h (1 Bft) N-NO 22 7,5 C 20,1 C
22.07.2012 15:56 20,2 C 43 % 1028,1 hPa 0,0 l/m 3,6 km/h (1 Bft) N 360 7,2 C 20,2 C
22.07.2012 16:01 21,3 C 43 % 1028,2 hPa 0,0 l/m 4,7 km/h (1 Bft) SW 225 8,2 C 21,3 C
22.07.2012 16:06 22,4 C 42 % 1028,2 hPa 0,0 l/m 7,6 km/h (2 Bft) W 270 8,9 C 22,4 C
22.07.2012 16:11 22,0 C 41 % 1028,3 hPa 0,0 l/m 5,8 km/h (2 Bft) NW 315 8,1 C 22,0 C
22.07.2012 16:16 21,8 C 42 % 1028,2 hPa 0,0 l/m 0,0 km/h (0 Bft) W-NW 292 8,3 C 21,8 C
22.07.2012 16:21 21,5 C 42 % 1028,3 hPa 0,0 l/m 2,9 km/h (1 Bft) NO 45 8,0 C 21,5 C
22.07.2012 16:26 21,4 C 42 % 1028,1 hPa 0,0 l/m 6,5 km/h (2 Bft) N-NO 22 8,0 C 21,4 C
22.07.2012 16:31 21,9 C 41 % 1028,3 hPa 0,0 l/m 10,8 km/h (2 Bft) N 360 8,0 C 21,9 C
22.07.2012 16:36 22,8 C 40 % 1028,2 hPa 0,0 l/m 5,8 km/h (2 Bft) N-NO 22 8,5 C 22,8 C
22.07.2012 16:41 22,9 C 39 % 1028,2 hPa 0,0 l/m 6,5 km/h (2 Bft) NW 315 8,2 C 22,9 C
22.07.2012 16:46 23,3 C 39 % 1028,3 hPa 0,0 l/m 4,3 km/h (1 Bft) O-NO 67 8,6 C 23,3 C
22.07.2012 16:51 23,8 C 39 % 1028,3 hPa 0,0 l/m 4,0 km/h (1 Bft) NW 315 9,0 C 23,8 C
22.07.2012 16:56 23,9 C 38 % 1028,2 hPa 0,0 l/m 8,3 km/h (2 Bft) W-NW 292 8,7 C 23,9 C
22.07.2012 17:01 23,8 C 38 % 1028,2 hPa 0,0 l/m 6,5 km/h (2 Bft) NW 315 8,6 C 23,8 C
22.07.2012 17:06 22,6 C 40 % 1028,3 hPa 0,0 l/m 7,9 km/h (2 Bft) NW 315 8,3 C 22,6 C
22.07.2012 17:11 22,1 C 42 % 1028,3 hPa 0,0 l/m 2,9 km/h (1 Bft) N 360 8,6 C 22,1 C
22.07.2012 17:16 21,8 C 42 % 1028,3 hPa 0,0 l/m 3,2 km/h (1 Bft) N-NO 22 8,3 C 21,8 C
22.07.2012 17:21 21,0 C 43 % 1028,2 hPa 0,0 l/m 5,8 km/h (2 Bft) NO 45 7,9 C 21,0 C
22.07.2012 17:26 21,4 C 44 % 1028,2 hPa 0,0 l/m 3,2 km/h (1 Bft) NW 315 8,6 C 21,4 C
22.07.2012 17:31 21,9 C 43 % 1028,2 hPa 0,0 l/m 6,5 km/h (2 Bft) W-NW 292 8,7 C 21,9 C
22.07.2012 17:36 22,0 C 43 % 1028,2 hPa 0,0 l/m 7,9 km/h (2 Bft) NW 315 8,8 C 22,0 C
22.07.2012 17:41 21,6 C 42 % 1028,2 hPa 0,0 l/m 2,5 km/h (1 Bft) W 270 8,1 C 21,6 C
22.07.2012 17:46 21,8 C 42 % 1028,3 hPa 0,0 l/m 4,3 km/h (1 Bft) N 360 8,3 C 21,8 C
22.07.2012 17:51 22,1 C 41 % 1028,2 hPa 0,0 l/m 3,6 km/h (1 Bft) W-NW 292 8,2 C 22,1 C
22.07.2012 17:56 22,3 C 40 % 1028,2 hPa 0,0 l/m 3,6 km/h (1 Bft) N-NO 22 8,0 C 22,3 C
22.07.2012 18:01 22,6 C 41 % 1028,3 hPa 0,0 l/m 1,4 km/h (1 Bft) W-SW 247 8,7 C 22,6 C
22.07.2012 18:06 22,9 C 41 % 1028,3 hPa 0,0 l/m 7,9 km/h (2 Bft) N-NW 337 8,9 C 22,9 C
22.07.2012 18:11 23,2 C 41 % 1028,2 hPa 0,0 l/m 2,2 km/h (1 Bft) N 360 9,2 C 23,2 C
22.07.2012 18:16 23,1 C 39 % 1028,2 hPa 0,0 l/m 2,2 km/h (1 Bft) W-NW 292 8,4 C 23,1 C
22.07.2012 18:21 23,4 C 40 % 1028,3 hPa 0,0 l/m 4,3 km/h (1 Bft) NO 45 9,0 C 23,4 C
22.07.2012 18:26 22,9 C 38 % 1028,3 hPa 0,0 l/m 6,8 km/h (2 Bft) N-NO 22 7,8 C 22,9 C
22.07.2012 18:31 21,8 C 40 % 1028,3 hPa 0,0 l/m 8,3 km/h (2 Bft) N 360 7,6 C 21,8 C
22.07.2012 18:36 21,3 C 42 % 1028,3 hPa 0,0 l/m 5,4 km/h (1 Bft) N 360 7,9 C 21,3 C
22.07.2012 18:41 21,2 C 42 % 1028,3 hPa 0,0 l/m 4,7 km/h (1 Bft) N-NW 337 7,8 C 21,2 C
22.07.2012 18:46 21,5 C 42 % 1028,2 hPa 0,0 l/m 1,8 km/h (1 Bft) N 360 8,0 C 21,5 C
22.07.2012 18:51 21,6 C 41 % 1028,3 hPa 0,0 l/m 2,2 km/h (1 Bft) N-NO 22 7,8 C 21,6 C
22.07.2012 18:56 22,1 C 41 % 1028,3 hPa 0,0 l/m 1,8 km/h (1 Bft) W 270 8,2 C 22,1 C
22.07.2012 19:01 22,4 C 41 % 1028,3 hPa 0,0 l/m 1,4 km/h (1 Bft) N-NO 22 8,5 C 22,4 C
22.07.2012 19:06 22,2 C 42 % 1028,3 hPa 0,0 l/m 2,9 km/h (1 Bft) W-NW 292 8,7 C 22,2 C
22.07.2012 19:11 22,1 C 43 % 1028,3 hPa 0,0 l/m 0,0 km/h (0 Bft) W-NW 292 8,9 C 22,1 C
22.07.2012 19:16 22,0 C 43 % 1028,4 hPa 0,0 l/m 4,0 km/h (1 Bft) W 270 8,8 C 22,0 C
22.07.2012 19:21 21,9 C 44 % 1028,4 hPa 0,0 l/m 3,2 km/h (1 Bft) W-NW 292 9,1 C 21,9 C
22.07.2012 19:26 21,9 C 43 % 1028,3 hPa 0,0 l/m 2,5 km/h (1 Bft) W 270 8,7 C 21,9 C
22.07.2012 19:31 21,9 C 43 % 1028,3 hPa 0,0 l/m 3,6 km/h (1 Bft) W-NW 292 8,7 C 21,9 C
22.07.2012 19:36 21,9 C 44 % 1028,3 hPa 0,0 l/m 1,4 km/h (1 Bft) W 270 9,1 C 21,9 C
22.07.2012 19:41 22,2 C 44 % 1028,4 hPa 0,0 l/m 5,0 km/h (1 Bft) W-NW 292 9,4 C 22,2 C
22.07.2012 19:46 22,4 C 43 % 1028,3 hPa 0,0 l/m 1,4 km/h (1 Bft) W 270 9,2 C 22,4 C
22.07.2012 19:51 23,3 C 42 % 1028,5 hPa 0,0 l/m 1,1 km/h (1 Bft) W 270 9,7 C 23,3 C
22.07.2012 19:56 23,6 C 39 % 1028,5 hPa 0,0 l/m 0,0 km/h (0 Bft) N 360 8,8 C 23,6 C
22.07.2012 20:01 23,4 C 40 % 1028,2 hPa 0,0 l/m 4,0 km/h (1 Bft) N-NO 22 9,0 C 23,4 C
22.07.2012 20:06 23,2 C 40 % 1028,3 hPa 0,0 l/m 2,5 km/h (1 Bft) N-NW 337 8,8 C 23,2 C
22.07.2012 20:11 22,1 C 42 % 1028,4 hPa 0,0 l/m 0,0 km/h (0 Bft) W 270 8,6 C 22,1 C
22.07.2012 20:16 21,2 C 44 % 1028,4 hPa 0,0 l/m 0,0 km/h (0 Bft) NW 315 8,5 C 21,2 C
22.07.2012 20:21 20,9 C 45 % 1028,5 hPa 0,0 l/m 0,0 km/h (0 Bft) NW 315 8,5 C 20,9 C
22.07.2012 20:26 20,6 C 46 % 1028,5 hPa 0,0 l/m 0,0 km/h (0 Bft) NW 315 8,6 C 20,6 C
22.07.2012 20:31 20,1 C 48 % 1028,6 hPa 0,0 l/m 0,0 km/h (0 Bft) NW 315 8,7 C 20,1 C
22.07.2012 20:36 19,8 C 49 % 1028,6 hPa 0,0 l/m 0,0 km/h (0 Bft) NW 315 8,8 C 19,8 C
22.07.2012 20:41 19,4 C 50 % 1028,6 hPa 0,0 l/m 0,0 km/h (0 Bft) NW 315 8,7 C 19,4 C
22.07.2012 20:46 19,1 C 51 % 1028,5 hPa 0,0 l/m 0,0 km/h (0 Bft) NW 315 8,7 C 19,1 C
22.07.2012 20:51 18,9 C 53 % 1028,5 hPa 0,0 l/m 0,0 km/h (0 Bft) NW 315 9,1 C 18,9 C
22.07.2012 20:56 18,6 C 54 % 1028,5 hPa 0,0 l/m 0,0 km/h (0 Bft) NW 315 9,1 C 18,6 C
22.07.2012 21:01 18,4 C 55 % 1028,6 hPa 0,0 l/m 0,0 km/h (0 Bft) NW 315 9,2 C 18,4 C
22.07.2012 21:06 18,1 C 56 % 1028,5 hPa 0,0 l/m 0,0 km/h (0 Bft) NW 315 9,2 C 18,1 C
22.07.2012 21:11 17,9 C 57 % 1028,6 hPa 0,0 l/m 0,0 km/h (0 Bft) NW 315 9,3 C 17,9 C
22.07.2012 21:16 17,6 C 58 % 1028,6 hPa 0,0 l/m 0,0 km/h (0 Bft) NW 315 9,2 C 17,6 C
22.07.2012 21:21 17,3 C 59 % 1028,6 hPa 0,0 l/m 0,0 km/h (0 Bft) NW 315 9,2 C 17,3 C
22.07.2012 21:26 17,1 C 60 % 1028,7 hPa 0,0 l/m 0,0 km/h (0 Bft) NW 315 9,3 C 17,1 C
22.07.2012 21:31 16,9 C 62 % 1028,7 hPa 0,0 l/m 0,0 km/h (0 Bft) NW 315 9,6 C 16,9 C
22.07.2012 21:36 16,7 C 63 % 1028,8 hPa 0,0 l/m 0,0 km/h (0 Bft) NW 315 9,6 C 16,7 C
22.07.2012 21:41 16,5 C 63 % 1028,9 hPa 0,0 l/m 0,0 km/h (0 Bft) NW 315 9,4 C 16,5 C
22.07.2012 21:46 16,3 C 64 % 1029,0 hPa 0,0 l/m 0,0 km/h (0 Bft) NW 315 9,5 C 16,3 C
22.07.2012 21:51 16,1 C 65 % 1028,9 hPa 0,0 l/m 0,0 km/h (0 Bft) NW 315 9,5 C 16,1 C
22.07.2012 21:56 15,9 C 65 % 1029,0 hPa 0,0 l/m 0,0 km/h (0 Bft) NW 315 9,3 C 15,9 C
22.07.2012 22:01 15,8 C 66 % 1029,0 hPa 0,0 l/m 0,0 km/h (0 Bft) NW 315 9,5 C 15,8 C
22.07.2012 22:06 15,6 C 66 % 1029,1 hPa 0,0 l/m 0,0 km/h (0 Bft) NW 315 9,3 C 15,6 C
22.07.2012 22:11 15,4 C 67 % 1029,1 hPa 0,0 l/m 0,0 km/h (0 Bft) NW 315 9,3 C 15,4 C
22.07.2012 22:16 15,3 C 68 % 1029,1 hPa 0,0 l/m 0,0 km/h (0 Bft) NW 315 9,4 C 15,3 C
22.07.2012 22:21 15,2 C 69 % 1029,2 hPa 0,0 l/m 0,0 km/h (0 Bft) NW 315 9,6 C 15,2 C
22.07.2012 22:26 15,1 C 69 % 1029,1 hPa 0,0 l/m 0,0 km/h (0 Bft) NW 315 9,5 C 15,1 C
22.07.2012 22:31 14,9 C 69 % 1029,3 hPa 0,0 l/m 0,0 km/h (0 Bft) NW 315 9,3 C 14,9 C
22.07.2012 22:36 14,9 C 70 % 1029,3 hPa 0,0 l/m 0,0 km/h (0 Bft) NW 315 9,5 C 14,9 C
22.07.2012 22:41 14,8 C 70 % 1029,3 hPa 0,0 l/m 0,0 km/h (0 Bft) NW 315 9,4 C 14,8 C
22.07.2012 22:46 14,6 C 71 % 1029,4 hPa 0,0 l/m 0,0 km/h (0 Bft) NW 315 9,4 C 14,6 C
22.07.2012 22:51 14,5 C 71 % 1029,3 hPa 0,0 l/m 0,0 km/h (0 Bft) NW 315 9,3 C 14,5 C
22.07.2012 22:56 14,4 C 72 % 1029,4 hPa 0,0 l/m 0,0 km/h (0 Bft) NW 315 9,4 C 14,4 C
22.07.2012 23:01 14,3 C 72 % 1029,4 hPa 0,0 l/m 0,0 km/h (0 Bft) NW 315 9,3 C 14,3 C
22.07.2012 23:06 14,1 C 73 % 1029,3 hPa 0,0 l/m 0,0 km/h (0 Bft) NW 315 9,3 C 14,1 C
22.07.2012 23:11 14,1 C 73 % 1029,4 hPa 0,0 l/m 0,0 km/h (0 Bft) NW 315 9,3 C 14,1 C
22.07.2012 23:16 13,9 C 74 % 1029,4 hPa 0,0 l/m 0,0 km/h (0 Bft) SW 225 9,3 C 13,9 C
22.07.2012 23:21 13,8 C 73 % 1029,4 hPa 0,0 l/m 0,0 km/h (0 Bft) SW 225 9,0 C 13,8 C
22.07.2012 23:26 13,8 C 74 % 1029,5 hPa 0,0 l/m 0,0 km/h (0 Bft) SW 225 9,2 C 13,8 C
22.07.2012 23:31 13,6 C 74 % 1029,4 hPa 0,0 l/m 0,0 km/h (0 Bft) SW 225 9,1 C 13,6 C
22.07.2012 23:36 13,5 C 75 % 1029,4 hPa 0,0 l/m 0,0 km/h (0 Bft) SW 225 9,2 C 13,5 C
22.07.2012 23:41 13,5 C 75 % 1029,5 hPa 0,0 l/m 0,0 km/h (0 Bft) SW 225 9,2 C 13,5 C
22.07.2012 23:46 13,4 C 76 % 1029,6 hPa 0,0 l/m 0,0 km/h (0 Bft) SW 225 9,3 C 13,4 C
22.07.2012 23:51 13,3 C 76 % 1029,6 hPa 0,0 l/m 0,0 km/h (0 Bft) SW 225 9,2 C 13,3 C
22.07.2012 23:56 13,1 C 77 % 1029,6 hPa 0,0 l/m 0,0 km/h (0 Bft) SW 225 9,2 C 13,1 C
_ Min-Zeit 05:26 16:56 00:01 - 01:01 - - 15:56 05:26
Minimum _ 10,8 C 38 % 1023,4 hPa - 0,0 km/h (0 Bft) - - 7,2 C 10,8 C
_ Max-Zeit 16:56 05:21 23:46 00:01 11:51 - - 07:06 16:56
Maximum _ 23,9 C 86 % 1029,6 hPa 0,0 l/m 15,8 km/h
NO (3 Bft)
- - 11,5 C 23,9 C
Durchschnitt _ 17,2 C 61 % 1027,2 hPa #0,0 l/m 4,1 km/h (1 Bft) NW - 9,0 C 17,2 C
(c) by David Heller